createdAt,value
2023-03-01T00:13:54.587Z,12.93
2023-03-01T00:16:35.219Z,11.47
2023-03-01T00:19:03.607Z,11.60
2023-03-01T00:21:31.005Z,14.57
2023-03-01T00:23:58.880Z,14.53
2023-03-01T00:26:28.221Z,14.37
2023-03-01T00:28:59.143Z,13.40
2023-03-01T00:31:30.418Z,12.93
2023-03-01T00:34:01.351Z,14.13
2023-03-01T00:36:33.268Z,14.17
2023-03-01T00:39:00.839Z,17.50
2023-03-01T00:41:28.415Z,16.37
2023-03-01T00:43:57.082Z,13.87
2023-03-01T00:46:28.912Z,16.50
2023-03-01T00:48:56.155Z,15.87
2023-03-01T00:51:29.436Z,14.83
2023-03-01T00:54:00.800Z,15.67
2023-03-01T00:56:29.397Z,15.02
2023-03-01T00:58:56.712Z,14.70
2023-03-01T01:01:31.688Z,14.00
2023-03-01T01:04:09.901Z,14.50
2023-03-01T01:06:43.560Z,16.43
2023-03-01T01:09:18.168Z,14.00
2023-03-01T01:11:52.081Z,17.30
2023-03-01T01:16:53.652Z,15.90
2023-03-01T01:19:21.165Z,16.77
2023-03-01T01:21:49.407Z,17.77
2023-03-01T01:24:17.189Z,17.33
2023-03-01T01:26:45.456Z,18.67
2023-03-01T01:29:13.278Z,14.87
2023-03-01T01:31:42.953Z,15.07
2023-03-01T01:34:19.974Z,17.60
2023-03-01T01:36:56.297Z,16.27
2023-03-01T01:39:24.003Z,16.80
2023-03-01T01:41:51.517Z,17.37
2023-03-01T01:44:21.340Z,16.60
2023-03-01T01:46:55.554Z,16.98
2023-03-01T01:49:52.528Z,17.50
2023-03-01T01:52:33.236Z,16.03
2023-03-01T01:55:21.937Z,16.57
2023-03-01T01:57:54.392Z,17.45
2023-03-01T02:00:27.481Z,16.73
2023-03-01T02:03:26.027Z,17.07
2023-03-01T02:06:04.477Z,19.50
2023-03-01T02:08:36.833Z,16.40
2023-03-01T02:11:07.365Z,16.42
2023-03-01T02:13:35.651Z,18.73
2023-03-01T02:16:10.771Z,17.77
2023-03-01T02:18:41.476Z,18.40
2023-03-01T02:21:44.813Z,17.27
2023-03-01T02:24:51.019Z,18.00
2023-03-01T02:27:26.078Z,18.27
2023-03-01T02:29:53.559Z,17.60
2023-03-01T02:32:26.256Z,16.63
2023-03-01T02:34:57.593Z,18.93
2023-03-01T02:37:27.483Z,16.63
2023-03-01T02:40:05.059Z,16.70
2023-03-01T02:42:38.482Z,15.00
2023-03-01T02:45:06.550Z,16.43
2023-03-01T02:47:33.739Z,20.13
2023-03-01T02:50:01.079Z,17.77
2023-03-01T02:52:53.572Z,18.63
2023-03-01T02:55:20.928Z,18.25
2023-03-01T02:57:55.272Z,16.17
2023-03-01T03:00:34.255Z,18.13
2023-03-01T03:03:01.804Z,18.02
2023-03-01T03:05:32.192Z,18.58
2023-03-01T03:08:02.231Z,19.07
2023-03-01T03:10:33.979Z,16.33
2023-03-01T03:13:12.829Z,22.40
2023-03-01T03:15:42.530Z,18.63
2023-03-01T03:18:14.425Z,18.85
2023-03-01T03:20:44.082Z,19.27
2023-03-01T03:23:11.855Z,17.80
2023-03-01T03:25:39.131Z,18.37
2023-03-01T03:28:11.340Z,17.93
2023-03-01T03:30:41.833Z,19.93
2023-03-01T03:33:13.301Z,18.10
2023-03-01T03:35:48.971Z,19.65
2023-03-01T03:38:23.055Z,19.80
2023-03-01T03:41:08.386Z,19.95
2023-03-01T03:43:39.012Z,19.77
2023-03-01T03:46:06.868Z,19.03
2023-03-01T03:48:42.665Z,21.07
2023-03-01T03:51:17.410Z,20.43
2023-03-01T03:53:46.226Z,21.50
2023-03-01T03:56:14.132Z,21.42
2023-03-01T03:58:41.509Z,21.67
2023-03-01T04:01:08.823Z,19.70
2023-03-01T04:03:36.417Z,20.80
2023-03-01T04:06:05.660Z,22.33
2023-03-01T04:08:32.951Z,19.33
2023-03-01T04:11:22.501Z,20.38
2023-03-01T04:13:50.010Z,18.10
2023-03-01T04:16:18.791Z,20.23
2023-03-01T04:18:46.722Z,19.17
2023-03-01T04:21:15.204Z,20.00
2023-03-01T04:23:42.511Z,20.10
2023-03-01T04:26:09.950Z,18.37
2023-03-01T04:28:49.264Z,20.13
2023-03-01T04:31:22.438Z,16.83
2023-03-01T04:33:58.313Z,19.48
2023-03-01T04:36:29.337Z,20.90
2023-03-01T04:38:57.201Z,20.80
2023-03-01T04:41:26.214Z,21.97
2023-03-01T04:43:53.511Z,19.33
2023-03-01T04:46:24.609Z,20.97
2023-03-01T04:48:54.252Z,18.10
2023-03-01T04:51:21.373Z,21.53
2023-03-01T04:53:54.893Z,21.33
2023-03-01T04:56:24.134Z,19.80
2023-03-01T04:58:54.629Z,35.13
2023-03-01T05:01:24.804Z,32.60
2023-03-01T05:03:53.336Z,20.27
2023-03-01T05:06:21.610Z,20.80
2023-03-01T05:08:48.944Z,23.23
2023-03-01T05:11:25.737Z,19.30
2023-03-01T05:14:06.112Z,20.40
2023-03-01T05:16:39.457Z,20.43
2023-03-01T05:19:12.901Z,23.10
2023-03-01T05:22:00.339Z,21.97
2023-03-01T05:24:28.177Z,19.83
2023-03-01T05:27:27.785Z,23.67
2023-03-01T05:29:54.900Z,26.40
2023-03-01T05:32:22.176Z,27.33
2023-03-01T05:34:49.574Z,20.80
2023-03-01T05:37:16.858Z,27.33
2023-03-01T05:39:46.063Z,20.47
2023-03-01T05:42:14.552Z,21.03
2023-03-01T05:44:41.744Z,22.97
2023-03-01T05:47:11.051Z,20.70
2023-03-01T05:49:40.216Z,26.40
2023-03-01T05:52:07.961Z,28.63
2023-03-01T05:54:40.436Z,21.97
2023-03-01T05:57:08.337Z,22.53
2023-03-01T05:59:36.223Z,25.07
2023-03-01T06:02:03.321Z,26.17
2023-03-01T06:04:30.380Z,26.37
2023-03-01T06:06:57.675Z,32.27
2023-03-01T06:09:24.831Z,21.50
2023-03-01T06:11:51.910Z,22.43
2023-03-01T06:14:23.036Z,21.83
2023-03-01T06:17:26.074Z,25.63
2023-03-01T06:24:46.274Z,20.53
2023-03-01T06:27:13.513Z,21.53
2023-03-01T06:29:41.832Z,19.10
2023-03-01T06:32:10.081Z,22.27
2023-03-01T06:34:37.174Z,21.70
2023-03-01T06:37:06.203Z,19.73
2023-03-01T06:39:34.382Z,22.63
2023-03-01T06:42:01.557Z,19.97
2023-03-01T06:44:29.037Z,34.00
2023-03-01T06:46:56.430Z,38.60
2023-03-01T06:49:23.633Z,54.00
2023-03-01T06:51:50.772Z,44.67
2023-03-01T06:54:18.873Z,31.23
2023-03-01T06:56:48.549Z,31.40
2023-03-01T06:59:16.691Z,27.00
2023-03-01T07:01:44.505Z,33.07
2023-03-01T07:04:12.490Z,33.23
2023-03-01T07:06:40.009Z,30.73
2023-03-01T07:09:07.380Z,29.57
2023-03-01T07:11:34.776Z,32.93
2023-03-01T07:14:01.959Z,31.47
2023-03-01T07:16:29.049Z,28.90
2023-03-01T07:18:56.262Z,28.07
2023-03-01T07:21:23.436Z,24.43
2023-03-01T07:23:50.611Z,24.20
2023-03-01T07:26:17.704Z,24.80
2023-03-01T07:28:45.194Z,21.10
2023-03-01T07:31:12.329Z,24.37
2023-03-01T07:33:39.413Z,21.37
2023-03-01T07:36:07.654Z,22.27
2023-03-01T07:38:35.206Z,19.63
2023-03-01T07:41:04.685Z,22.57
2023-03-01T07:43:31.956Z,22.40
2023-03-01T07:46:03.788Z,23.07
2023-03-01T07:48:32.064Z,20.13
2023-03-01T07:51:05.212Z,21.07
2023-03-01T07:53:32.922Z,22.20
2023-03-01T07:56:12.450Z,16.70
2023-03-01T07:58:42.682Z,21.23
2023-03-01T08:03:43.389Z,14.77
2023-03-01T08:06:13.037Z,15.45
2023-03-01T08:08:40.304Z,15.45
2023-03-01T08:11:09.320Z,14.03
2023-03-01T08:13:36.508Z,13.75
2023-03-01T08:16:09.908Z,13.43
2023-03-01T08:18:36.996Z,12.05
2023-03-01T08:21:13.032Z,13.50
2023-03-01T08:23:41.953Z,11.50
2023-03-01T08:26:19.642Z,10.45
2023-03-01T08:28:48.401Z,10.52
2023-03-01T08:31:28.635Z,10.43
2023-03-01T08:34:00.552Z,10.00
2023-03-01T08:36:41.129Z,10.05
2023-03-01T08:39:10.566Z,9.68
2023-03-01T08:41:37.912Z,9.80
2023-03-01T08:44:05.360Z,10.38
2023-03-01T08:46:39.139Z,9.90
2023-03-01T08:49:17.792Z,10.10
2023-03-01T08:51:45.890Z,9.82
2023-03-01T08:54:31.551Z,9.47
2023-03-01T08:57:00.281Z,9.30
2023-03-01T08:59:28.012Z,10.48
2023-03-01T09:01:55.347Z,10.75
2023-03-01T09:04:22.853Z,9.40
2023-03-01T09:06:50.136Z,8.13
2023-03-01T09:09:19.039Z,7.10
2023-03-01T09:11:47.966Z,7.40
2023-03-01T09:14:15.640Z,6.93
2023-03-01T09:16:43.049Z,7.43
2023-03-01T09:19:10.076Z,8.17
2023-03-01T09:21:40.922Z,6.90
2023-03-01T09:24:14.860Z,7.17
2023-03-01T09:26:42.554Z,7.50
2023-03-01T11:52:22.417Z,5.80
2023-03-01T11:55:29.419Z,8.57
2023-03-01T13:10:02.981Z,5.03
2023-03-01T13:12:50.477Z,6.03
2023-03-01T13:15:23.381Z,4.43
2023-03-01T13:17:56.671Z,4.60
2023-03-01T13:20:53.154Z,4.87
2023-03-01T13:23:23.139Z,4.83
2023-03-01T13:26:19.227Z,5.73
2023-03-01T13:28:47.137Z,7.67
2023-03-01T13:31:16.983Z,5.20
2023-03-01T13:33:59.202Z,5.50
2023-03-01T13:36:30.069Z,7.80
2023-03-01T13:39:02.865Z,7.93
2023-03-01T13:41:45.362Z,5.30
2023-03-01T13:44:37.595Z,5.27
2023-03-01T13:47:07.865Z,4.93
2023-03-01T13:49:46.948Z,5.43
2023-03-01T13:52:41.982Z,5.40
2023-03-01T13:55:36.025Z,4.87
2023-03-01T13:58:16.587Z,5.50
2023-03-01T14:00:43.845Z,5.37
2023-03-01T14:03:20.366Z,5.93
2023-03-01T14:06:14.261Z,6.03
2023-03-01T14:08:45.219Z,4.70
2023-03-01T14:11:42.826Z,8.23
2023-03-01T14:15:00.289Z,6.63
2023-03-01T14:17:44.806Z,5.60
2023-03-01T14:20:31.687Z,5.23
2023-03-01T14:23:13.062Z,6.70
2023-03-01T14:25:58.655Z,5.10
2023-03-01T14:28:34.462Z,4.60
2023-03-01T14:31:03.069Z,7.53
2023-03-01T14:33:38.304Z,6.00
2023-03-01T14:36:12.059Z,4.90
2023-03-01T14:38:48.318Z,6.37
2023-03-01T14:43:18.059Z,5.27
2023-03-01T14:45:50.960Z,6.20
2023-03-01T14:48:19.146Z,4.77
2023-03-01T14:50:47.030Z,6.47
2023-03-01T14:53:25.818Z,4.00
2023-03-01T14:56:03.576Z,5.67
2023-03-01T14:58:33.543Z,5.43
2023-03-01T15:01:06.021Z,5.53
2023-03-01T15:03:40.365Z,5.03
2023-03-01T15:06:09.301Z,4.60
2023-03-01T15:08:38.522Z,3.93
2023-03-01T15:11:26.284Z,4.30
2023-03-01T15:13:55.213Z,4.03
2023-03-01T15:16:32.394Z,4.83
2023-03-01T15:19:08.172Z,5.27
2023-03-01T15:21:38.015Z,4.77
2023-03-01T15:24:20.940Z,4.20
2023-03-01T15:27:07.759Z,7.63
2023-03-01T15:29:41.669Z,4.40
2023-03-01T15:32:31.212Z,5.27
2023-03-01T15:35:00.415Z,5.33
2023-03-01T15:37:48.804Z,4.10
2023-03-01T15:40:33.417Z,4.37
2023-03-01T15:43:39.905Z,4.20
2023-03-01T15:46:12.477Z,4.20
2023-03-01T15:48:39.924Z,4.40
2023-03-01T15:51:15.904Z,6.73
2023-03-01T15:53:54.612Z,4.80
2023-03-01T15:56:22.163Z,4.93
2023-03-01T15:58:49.602Z,4.93
2023-03-01T16:01:18.581Z,6.17
2023-03-01T16:03:46.523Z,5.55
2023-03-01T16:06:14.716Z,5.38
2023-03-01T16:08:42.816Z,5.53
2023-03-01T16:11:18.874Z,5.40
2023-03-01T16:13:47.213Z,5.28
2023-03-01T16:16:17.479Z,6.20
2023-03-01T16:18:47.364Z,5.10
2023-03-01T16:21:25.876Z,5.30
2023-03-01T16:23:54.045Z,4.88
2023-03-01T16:28:49.761Z,5.03
2023-03-01T16:31:21.134Z,5.72
2023-03-01T16:33:51.062Z,6.07
2023-03-01T16:36:20.829Z,6.18
2023-03-01T16:38:49.427Z,6.13
2023-03-01T16:41:19.583Z,6.20
2023-03-01T16:43:47.752Z,5.33
2023-03-01T16:46:18.344Z,5.43
2023-03-01T16:48:47.028Z,5.78
2023-03-01T16:51:14.268Z,5.05
2023-03-01T16:53:42.015Z,5.30
2023-03-01T16:56:13.359Z,5.25
2023-03-01T16:58:42.043Z,5.18
2023-03-01T17:01:20.692Z,6.05
2023-03-01T17:03:49.774Z,5.43
2023-03-01T17:06:21.778Z,5.27
2023-03-01T17:08:49.347Z,5.27
2023-03-01T17:16:17.467Z,5.60
2023-03-01T17:18:44.847Z,5.83
2023-03-01T17:21:13.294Z,5.83
2023-03-01T17:23:45.000Z,6.20
2023-03-01T20:31:29.620Z,17.20
2023-03-01T20:33:59.290Z,19.17
2023-03-01T20:36:28.509Z,18.10
2023-03-01T20:38:56.301Z,16.63
2023-03-01T20:41:28.834Z,16.90
2023-03-01T20:43:58.751Z,15.67
2023-03-01T20:46:27.397Z,19.30
2023-03-01T20:48:54.724Z,14.33
2023-03-01T20:51:21.924Z,16.13
2023-03-01T20:53:49.588Z,18.20
2023-03-01T20:56:18.643Z,15.97
2023-03-01T20:58:46.435Z,15.95
2023-03-01T21:01:24.771Z,17.35
2023-03-01T21:03:52.428Z,16.70
2023-03-01T21:06:19.470Z,16.25
2023-03-01T21:08:46.462Z,17.33
2023-03-01T21:11:13.534Z,20.45
2023-03-01T21:13:41.910Z,25.20
2023-03-01T21:16:16.912Z,28.30
2023-03-01T21:18:44.183Z,20.85
2023-03-01T21:21:15.372Z,23.38
2023-03-01T21:23:43.799Z,24.13
2023-03-01T21:26:16.531Z,26.67
2023-03-01T21:28:44.095Z,23.73
2023-03-01T21:31:15.400Z,21.43
2023-03-01T21:33:49.561Z,24.50
2023-03-01T21:36:17.207Z,22.45
2023-03-01T21:38:47.120Z,25.48
2023-03-01T21:41:19.705Z,21.60
2023-03-01T21:43:49.142Z,17.73
2023-03-01T21:46:21.130Z,20.17
2023-03-01T21:48:50.094Z,21.33
2023-03-01T21:51:20.316Z,20.60
2023-03-01T21:53:47.945Z,21.05
2023-03-01T21:56:22.207Z,22.60
2023-03-01T21:58:50.109Z,20.48
2023-03-01T22:01:39.771Z,17.13
2023-03-01T22:04:25.728Z,15.55
2023-03-01T22:06:54.575Z,16.05
2023-03-01T22:09:23.765Z,15.73
2023-03-01T22:12:02.702Z,15.10
2023-03-01T22:14:31.999Z,16.60
2023-03-01T22:16:59.440Z,16.55
2023-03-01T22:19:28.873Z,16.17
2023-03-01T22:21:56.043Z,16.20
2023-03-01T22:24:25.503Z,16.38
2023-03-01T22:26:54.578Z,17.85
2023-03-01T22:29:27.874Z,17.80
2023-03-01T22:31:56.749Z,17.85
2023-03-01T22:34:24.008Z,17.20
2023-03-01T22:36:51.430Z,18.02
2023-03-01T22:39:21.352Z,17.70
2023-03-01T22:41:50.137Z,17.88
2023-03-01T22:44:21.674Z,17.30
2023-03-01T22:46:49.347Z,18.90
2023-03-01T22:49:17.923Z,18.27
2023-03-01T22:51:47.664Z,20.52
2023-03-01T22:54:15.982Z,19.77
2023-03-01T22:56:43.470Z,18.23
2023-03-01T22:59:15.149Z,19.58
2023-03-01T23:01:46.403Z,20.55
2023-03-01T23:04:18.567Z,19.17
2023-03-01T23:06:56.020Z,19.63
2023-03-01T23:09:32.894Z,20.73
2023-03-01T23:12:02.460Z,20.73
2023-03-01T23:14:32.479Z,22.25
2023-03-01T23:17:03.190Z,22.65
2023-03-01T23:19:32.119Z,22.10
2023-03-01T23:21:59.550Z,22.00
2023-03-01T23:24:32.034Z,23.13
2023-03-01T23:27:01.857Z,23.80
2023-03-01T23:29:29.797Z,26.43
2023-03-01T23:31:57.878Z,24.35
2023-03-01T23:34:26.473Z,25.52
2023-03-01T23:36:55.368Z,27.08
2023-03-01T23:39:22.505Z,26.13
2023-03-01T23:41:49.719Z,27.88
2023-03-01T23:44:21.204Z,27.60
2023-03-01T23:46:49.874Z,27.60
2023-03-01T23:49:22.255Z,28.48
2023-03-01T23:51:49.752Z,29.63
2023-03-01T23:54:22.475Z,29.30
2023-03-01T23:56:52.029Z,31.38
2023-03-01T23:59:24.360Z,31.95
